sensor_id;sensor_type;location;lat;lon;timestamp;P1;durP1;ratioP1;P2;durP2;ratioP2
13404;SDS011;6773;51.192;7.024;2024-03-23T00:55:05;13.37;;;4.93;;
13404;SDS011;6773;51.192;7.024;2024-03-23T00:57:31;13.53;;;5.50;;
13404;SDS011;6773;51.192;7.024;2024-03-23T00:59:57;17.73;;;5.73;;
13404;SDS011;6773;51.192;7.024;2024-03-23T01:02:23;13.87;;;5.53;;
13404;SDS011;6773;51.192;7.024;2024-03-23T01:04:49;20.17;;;6.27;;
13404;SDS011;6773;51.192;7.024;2024-03-23T01:07:15;14.70;;;6.10;;
13404;SDS011;6773;51.192;7.024;2024-03-23T01:09:41;13.20;;;5.80;;
13404;SDS011;6773;51.192;7.024;2024-03-23T01:12:07;21.37;;;6.87;;
13404;SDS011;6773;51.192;7.024;2024-03-23T01:14:33;15.03;;;6.50;;
13404;SDS011;6773;51.192;7.024;2024-03-23T01:17:01;17.17;;;6.80;;
13404;SDS011;6773;51.192;7.024;2024-03-23T01:19:27;14.63;;;5.90;;
13404;SDS011;6773;51.192;7.024;2024-03-23T01:21:52;13.43;;;5.53;;
13404;SDS011;6773;51.192;7.024;2024-03-23T01:24:18;15.50;;;5.50;;
13404;SDS011;6773;51.192;7.024;2024-03-23T01:26:44;15.70;;;6.00;;
13404;SDS011;6773;51.192;7.024;2024-03-23T01:29:09;8.87;;;5.07;;
13404;SDS011;6773;51.192;7.024;2024-03-23T01:31:36;12.67;;;5.30;;
13404;SDS011;6773;51.192;7.024;2024-03-23T01:34:02;18.57;;;5.37;;
13404;SDS011;6773;51.192;7.024;2024-03-23T01:36:28;16.00;;;5.60;;
13404;SDS011;6773;51.192;7.024;2024-03-23T01:38:54;15.60;;;5.57;;
13404;SDS011;6773;51.192;7.024;2024-03-23T01:41:19;14.67;;;5.93;;
13404;SDS011;6773;51.192;7.024;2024-03-23T01:43:45;16.20;;;5.83;;
13404;SDS011;6773;51.192;7.024;2024-03-23T01:46:12;13.13;;;6.13;;
13404;SDS011;6773;51.192;7.024;2024-03-23T01:48:38;12.77;;;6.10;;
13404;SDS011;6773;51.192;7.024;2024-03-23T01:51:04;14.30;;;5.70;;
13404;SDS011;6773;51.192;7.024;2024-03-23T01:53:30;13.10;;;5.97;;
13404;SDS011;6773;51.192;7.024;2024-03-23T01:55:56;10.53;;;5.90;;
13404;SDS011;6773;51.192;7.024;2024-03-23T01:58:22;16.03;;;5.67;;
13404;SDS011;6773;51.192;7.024;2024-03-23T02:00:48;13.40;;;5.13;;
13404;SDS011;6773;51.192;7.024;2024-03-23T02:03:26;16.70;;;5.17;;
13404;SDS011;6773;51.192;7.024;2024-03-23T02:05:53;13.10;;;4.77;;
13404;SDS011;6773;51.192;7.024;2024-03-23T02:08:20;8.40;;;4.20;;
13404;SDS011;6773;51.192;7.024;2024-03-23T02:10:47;9.40;;;4.20;;
13404;SDS011;6773;51.192;7.024;2024-03-23T02:13:14;6.57;;;3.80;;
13404;SDS011;6773;51.192;7.024;2024-03-23T02:15:41;13.13;;;4.60;;
13404;SDS011;6773;51.192;7.024;2024-03-23T02:18:07;10.20;;;3.83;;
13404;SDS011;6773;51.192;7.024;2024-03-23T02:20:36;6.67;;;3.23;;
13404;SDS011;6773;51.192;7.024;2024-03-23T02:23:03;11.60;;;3.40;;
13404;SDS011;6773;51.192;7.024;2024-03-23T02:25:31;6.60;;;3.30;;
13404;SDS011;6773;51.192;7.024;2024-03-23T02:27:57;11.40;;;3.97;;
13404;SDS011;6773;51.192;7.024;2024-03-23T02:30:24;9.87;;;3.37;;
13404;SDS011;6773;51.192;7.024;2024-03-23T02:32:50;9.87;;;3.70;;
13404;SDS011;6773;51.192;7.024;2024-03-23T02:35:16;6.97;;;4.27;;
13404;SDS011;6773;51.192;7.024;2024-03-23T02:37:42;10.27;;;4.00;;
13404;SDS011;6773;51.192;7.024;2024-03-23T02:40:08;13.63;;;3.83;;
13404;SDS011;6773;51.192;7.024;2024-03-23T02:42:34;10.27;;;4.27;;
13404;SDS011;6773;51.192;7.024;2024-03-23T02:45:00;10.23;;;4.33;;
13404;SDS011;6773;51.192;7.024;2024-03-23T02:47:26;8.77;;;3.97;;
13404;SDS011;6773;51.192;7.024;2024-03-23T02:49:52;13.00;;;4.03;;
13404;SDS011;6773;51.192;7.024;2024-03-23T02:52:19;8.90;;;3.83;;
13404;SDS011;6773;51.192;7.024;2024-03-23T02:54:45;10.10;;;4.20;;
13404;SDS011;6773;51.192;7.024;2024-03-23T02:57:11;9.87;;;4.10;;
13404;SDS011;6773;51.192;7.024;2024-03-23T02:59:37;15.13;;;4.27;;
13404;SDS011;6773;51.192;7.024;2024-03-23T03:02:03;8.40;;;4.30;;
13404;SDS011;6773;51.192;7.024;2024-03-23T03:04:30;7.03;;;3.97;;
13404;SDS011;6773;51.192;7.024;2024-03-23T03:06:56;7.50;;;3.80;;
13404;SDS011;6773;51.192;7.024;2024-03-23T03:09:21;6.03;;;3.90;;
13404;SDS011;6773;51.192;7.024;2024-03-23T03:11:47;6.87;;;3.80;;
13404;SDS011;6773;51.192;7.024;2024-03-23T03:14:13;11.93;;;4.47;;
13404;SDS011;6773;51.192;7.024;2024-03-23T03:16:39;12.90;;;4.40;;
13404;SDS011;6773;51.192;7.024;2024-03-23T03:19:05;7.87;;;4.50;;
13404;SDS011;6773;51.192;7.024;2024-03-23T03:21:31;7.53;;;4.37;;
13404;SDS011;6773;51.192;7.024;2024-03-23T03:23:57;6.47;;;4.03;;
13404;SDS011;6773;51.192;7.024;2024-03-23T03:26:23;12.53;;;4.37;;
13404;SDS011;6773;51.192;7.024;2024-03-23T03:28:50;7.90;;;3.90;;
13404;SDS011;6773;51.192;7.024;2024-03-23T03:31:16;10.63;;;4.30;;
13404;SDS011;6773;51.192;7.024;2024-03-23T03:33:42;14.20;;;4.07;;
13404;SDS011;6773;51.192;7.024;2024-03-23T03:36:08;5.30;;;3.63;;
13404;SDS011;6773;51.192;7.024;2024-03-23T03:38:34;9.07;;;3.80;;
13404;SDS011;6773;51.192;7.024;2024-03-23T03:41:03;8.17;;;3.57;;
13404;SDS011;6773;51.192;7.024;2024-03-23T03:43:31;6.73;;;3.50;;
13404;SDS011;6773;51.192;7.024;2024-03-23T03:45:57;8.63;;;3.87;;
13404;SDS011;6773;51.192;7.024;2024-03-23T03:48:23;7.43;;;3.47;;
13404;SDS011;6773;51.192;7.024;2024-03-23T03:50:49;6.30;;;3.50;;
13404;SDS011;6773;51.192;7.024;2024-03-23T03:53:15;6.87;;;3.70;;
13404;SDS011;6773;51.192;7.024;2024-03-23T03:55:41;6.67;;;4.03;;
13404;SDS011;6773;51.192;7.024;2024-03-23T03:58:07;6.77;;;3.30;;
13404;SDS011;6773;51.192;7.024;2024-03-23T04:00:33;8.17;;;3.70;;
13404;SDS011;6773;51.192;7.024;2024-03-23T04:03:00;5.63;;;3.80;;
13404;SDS011;6773;51.192;7.024;2024-03-23T04:05:26;12.90;;;5.30;;
13404;SDS011;6773;51.192;7.024;2024-03-23T04:07:52;8.70;;;3.90;;
13404;SDS011;6773;51.192;7.024;2024-03-23T04:10:19;14.87;;;5.63;;
13404;SDS011;6773;51.192;7.024;2024-03-23T04:12:45;8.47;;;5.03;;
13404;SDS011;6773;51.192;7.024;2024-03-23T04:15:11;12.67;;;5.50;;
13404;SDS011;6773;51.192;7.024;2024-03-23T04:17:36;12.30;;;5.50;;
13404;SDS011;6773;51.192;7.024;2024-03-23T04:20:03;9.77;;;5.30;;
13404;SDS011;6773;51.192;7.024;2024-03-23T04:22:33;11.00;;;5.40;;
13404;SDS011;6773;51.192;7.024;2024-03-23T04:24:59;12.20;;;5.87;;
13404;SDS011;6773;51.192;7.024;2024-03-23T04:27:31;9.93;;;5.20;;
13404;SDS011;6773;51.192;7.024;2024-03-23T04:30:00;8.97;;;5.30;;
13404;SDS011;6773;51.192;7.024;2024-03-23T04:32:26;17.97;;;5.63;;
13404;SDS011;6773;51.192;7.024;2024-03-23T04:34:52;11.40;;;5.40;;
13404;SDS011;6773;51.192;7.024;2024-03-23T04:37:18;14.87;;;5.87;;
13404;SDS011;6773;51.192;7.024;2024-03-23T04:39:44;12.40;;;5.70;;
13404;SDS011;6773;51.192;7.024;2024-03-23T04:42:10;10.27;;;4.97;;
13404;SDS011;6773;51.192;7.024;2024-03-23T04:44:37;11.23;;;4.63;;
13404;SDS011;6773;51.192;7.024;2024-03-23T04:47:02;14.10;;;6.07;;
13404;SDS011;6773;51.192;7.024;2024-03-23T04:49:28;13.00;;;5.27;;
13404;SDS011;6773;51.192;7.024;2024-03-23T04:51:54;11.43;;;5.30;;
13404;SDS011;6773;51.192;7.024;2024-03-23T04:54:20;13.23;;;5.50;;
13404;SDS011;6773;51.192;7.024;2024-03-23T04:56:46;12.50;;;5.67;;
13404;SDS011;6773;51.192;7.024;2024-03-23T04:59:12;9.07;;;5.03;;
13404;SDS011;6773;51.192;7.024;2024-03-23T05:01:38;10.87;;;4.23;;
13404;SDS011;6773;51.192;7.024;2024-03-23T05:04:07;14.87;;;5.17;;
13404;SDS011;6773;51.192;7.024;2024-03-23T05:06:33;9.23;;;5.53;;
13404;SDS011;6773;51.192;7.024;2024-03-23T05:08:59;7.97;;;5.03;;
13404;SDS011;6773;51.192;7.024;2024-03-23T05:11:26;12.50;;;5.77;;
13404;SDS011;6773;51.192;7.024;2024-03-23T05:13:52;17.40;;;5.93;;
13404;SDS011;6773;51.192;7.024;2024-03-23T05:16:18;12.23;;;5.60;;
13404;SDS011;6773;51.192;7.024;2024-03-23T05:18:44;10.90;;;5.30;;
13404;SDS011;6773;51.192;7.024;2024-03-23T05:21:10;8.87;;;5.23;;
13404;SDS011;6773;51.192;7.024;2024-03-23T05:23:36;11.93;;;5.30;;
13404;SDS011;6773;51.192;7.024;2024-03-23T05:26:03;15.33;;;5.30;;
13404;SDS011;6773;51.192;7.024;2024-03-23T05:28:29;11.90;;;5.00;;
13404;SDS011;6773;51.192;7.024;2024-03-23T05:30:55;9.17;;;5.37;;
13404;SDS011;6773;51.192;7.024;2024-03-23T05:33:24;17.40;;;5.90;;
13404;SDS011;6773;51.192;7.024;2024-03-23T05:35:59;19.67;;;5.67;;
13404;SDS011;6773;51.192;7.024;2024-03-23T05:38:26;11.07;;;4.90;;
13404;SDS011;6773;51.192;7.024;2024-03-23T05:40:56;16.37;;;5.03;;
13404;SDS011;6773;51.192;7.024;2024-03-23T05:43:23;13.80;;;5.17;;
13404;SDS011;6773;51.192;7.024;2024-03-23T05:45:55;10.27;;;5.07;;
13404;SDS011;6773;51.192;7.024;2024-03-23T05:48:22;11.20;;;4.90;;
13404;SDS011;6773;51.192;7.024;2024-03-23T05:50:48;13.23;;;4.87;;
13404;SDS011;6773;51.192;7.024;2024-03-23T05:53:18;14.97;;;5.57;;
13404;SDS011;6773;51.192;7.024;2024-03-23T05:55:47;14.03;;;5.00;;
13404;SDS011;6773;51.192;7.024;2024-03-23T05:58:14;12.90;;;5.07;;
13404;SDS011;6773;51.192;7.024;2024-03-23T06:00:41;11.57;;;5.17;;
13404;SDS011;6773;51.192;7.024;2024-03-23T06:03:07;12.87;;;5.37;;
13404;SDS011;6773;51.192;7.024;2024-03-23T06:05:33;11.63;;;4.87;;
13404;SDS011;6773;51.192;7.024;2024-03-23T06:07:59;11.87;;;5.13;;
13404;SDS011;6773;51.192;7.024;2024-03-23T06:10:25;10.60;;;5.37;;
13404;SDS011;6773;51.192;7.024;2024-03-23T06:12:51;14.13;;;6.23;;
13404;SDS011;6773;51.192;7.024;2024-03-23T06:15:20;16.83;;;6.07;;
13404;SDS011;6773;51.192;7.024;2024-03-23T06:17:47;15.80;;;5.63;;
13404;SDS011;6773;51.192;7.024;2024-03-23T06:20:13;15.10;;;5.50;;
13404;SDS011;6773;51.192;7.024;2024-03-23T06:22:39;11.60;;;5.07;;
13404;SDS011;6773;51.192;7.024;2024-03-23T06:25:05;9.20;;;4.43;;
13404;SDS011;6773;51.192;7.024;2024-03-23T06:27:32;12.43;;;5.33;;
13404;SDS011;6773;51.192;7.024;2024-03-23T06:29:58;13.90;;;5.53;;
13404;SDS011;6773;51.192;7.024;2024-03-23T06:32:24;13.83;;;6.33;;
13404;SDS011;6773;51.192;7.024;2024-03-23T06:34:50;14.97;;;5.77;;
13404;SDS011;6773;51.192;7.024;2024-03-23T06:37:16;18.20;;;5.80;;
13404;SDS011;6773;51.192;7.024;2024-03-23T06:39:42;13.67;;;5.93;;
13404;SDS011;6773;51.192;7.024;2024-03-23T06:42:08;14.27;;;6.07;;
13404;SDS011;6773;51.192;7.024;2024-03-23T06:44:34;13.07;;;6.03;;
13404;SDS011;6773;51.192;7.024;2024-03-23T06:47:00;13.77;;;5.77;;
13404;SDS011;6773;51.192;7.024;2024-03-23T06:49:26;15.90;;;6.13;;
13404;SDS011;6773;51.192;7.024;2024-03-23T06:51:52;15.03;;;7.13;;
13404;SDS011;6773;51.192;7.024;2024-03-23T06:54:19;16.93;;;6.37;;
13404;SDS011;6773;51.192;7.024;2024-03-23T06:56:45;13.33;;;7.17;;
13404;SDS011;6773;51.192;7.024;2024-03-23T06:59:11;17.27;;;7.17;;
13404;SDS011;6773;51.192;7.024;2024-03-23T07:01:37;17.13;;;8.23;;
13404;SDS011;6773;51.192;7.024;2024-03-23T07:04:03;16.37;;;6.80;;
13404;SDS011;6773;51.192;7.024;2024-03-23T07:06:32;14.57;;;6.80;;
13404;SDS011;6773;51.192;7.024;2024-03-23T07:08:58;20.70;;;8.10;;
13404;SDS011;6773;51.192;7.024;2024-03-23T07:11:24;11.63;;;6.37;;
13404;SDS011;6773;51.192;7.024;2024-03-23T07:13:51;12.97;;;6.40;;
13404;SDS011;6773;51.192;7.024;2024-03-23T07:16:17;16.17;;;7.30;;
13404;SDS011;6773;51.192;7.024;2024-03-23T07:18:43;17.97;;;6.93;;
13404;SDS011;6773;51.192;7.024;2024-03-23T07:21:09;18.43;;;7.43;;
13404;SDS011;6773;51.192;7.024;2024-03-23T07:23:35;21.67;;;8.30;;
13404;SDS011;6773;51.192;7.024;2024-03-23T07:26:02;20.57;;;8.37;;
13404;SDS011;6773;51.192;7.024;2024-03-23T07:28:29;20.30;;;8.47;;
13404;SDS011;6773;51.192;7.024;2024-03-23T07:31:03;18.40;;;8.00;;
13404;SDS011;6773;51.192;7.024;2024-03-23T07:33:30;13.00;;;8.40;;
13404;SDS011;6773;51.192;7.024;2024-03-23T07:35:56;26.40;;;8.57;;
13404;SDS011;6773;51.192;7.024;2024-03-23T07:38:23;18.70;;;7.90;;
13404;SDS011;6773;51.192;7.024;2024-03-23T07:40:48;18.40;;;8.57;;
13404;SDS011;6773;51.192;7.024;2024-03-23T07:43:21;17.90;;;8.13;;
13404;SDS011;6773;51.192;7.024;2024-03-23T07:45:53;14.13;;;7.13;;
13404;SDS011;6773;51.192;7.024;2024-03-23T07:48:20;18.67;;;8.30;;
13404;SDS011;6773;51.192;7.024;2024-03-23T07:50:57;11.80;;;6.67;;
13404;SDS011;6773;51.192;7.024;2024-03-23T07:53:27;15.97;;;6.77;;
13404;SDS011;6773;51.192;7.024;2024-03-23T07:56:00;15.47;;;6.80;;
13404;SDS011;6773;51.192;7.024;2024-03-23T07:58:26;13.73;;;6.20;;
13404;SDS011;6773;51.192;7.024;2024-03-23T08:00:53;14.30;;;7.23;;
13404;SDS011;6773;51.192;7.024;2024-03-23T08:03:19;17.57;;;6.33;;
13404;SDS011;6773;51.192;7.024;2024-03-23T08:05:45;18.57;;;6.97;;
13404;SDS011;6773;51.192;7.024;2024-03-23T08:08:11;14.53;;;6.97;;
13404;SDS011;6773;51.192;7.024;2024-03-23T08:10:37;12.30;;;6.03;;
13404;SDS011;6773;51.192;7.024;2024-03-23T08:13:16;17.87;;;6.10;;
13404;SDS011;6773;51.192;7.024;2024-03-23T08:15:42;16.00;;;5.63;;
13404;SDS011;6773;51.192;7.024;2024-03-23T08:18:08;12.27;;;6.40;;
13404;SDS011;6773;51.192;7.024;2024-03-23T08:20:34;11.10;;;5.60;;
13404;SDS011;6773;51.192;7.024;2024-03-23T08:23:00;10.60;;;6.20;;
13404;SDS011;6773;51.192;7.024;2024-03-23T08:25:25;10.30;;;6.10;;
13404;SDS011;6773;51.192;7.024;2024-03-23T08:27:51;16.20;;;7.30;;
13404;SDS011;6773;51.192;7.024;2024-03-23T08:30:17;8.47;;;5.60;;
13404;SDS011;6773;51.192;7.024;2024-03-23T08:32:43;12.77;;;6.13;;
13404;SDS011;6773;51.192;7.024;2024-03-23T08:35:11;12.37;;;6.57;;
13404;SDS011;6773;51.192;7.024;2024-03-23T08:37:37;14.23;;;6.40;;
13404;SDS011;6773;51.192;7.024;2024-03-23T08:40:02;11.97;;;5.23;;
13404;SDS011;6773;51.192;7.024;2024-03-23T08:42:29;12.17;;;6.97;;
13404;SDS011;6773;51.192;7.024;2024-03-23T08:44:55;10.37;;;5.60;;
13404;SDS011;6773;51.192;7.024;2024-03-23T08:47:21;12.43;;;5.20;;
13404;SDS011;6773;51.192;7.024;2024-03-23T08:49:47;11.80;;;6.50;;
13404;SDS011;6773;51.192;7.024;2024-03-23T08:52:13;7.10;;;5.30;;
13404;SDS011;6773;51.192;7.024;2024-03-23T08:54:39;14.77;;;5.43;;
13404;SDS011;6773;51.192;7.024;2024-03-23T08:57:05;8.07;;;5.37;;
13404;SDS011;6773;51.192;7.024;2024-03-23T08:59:32;12.07;;;5.27;;
13404;SDS011;6773;51.192;7.024;2024-03-23T09:01:58;7.57;;;4.73;;
13404;SDS011;6773;51.192;7.024;2024-03-23T09:04:24;10.40;;;4.90;;
13404;SDS011;6773;51.192;7.024;2024-03-23T09:06:50;10.20;;;4.80;;
13404;SDS011;6773;51.192;7.024;2024-03-23T09:09:16;11.77;;;4.47;;
13404;SDS011;6773;51.192;7.024;2024-03-23T09:11:42;8.80;;;3.97;;
13404;SDS011;6773;51.192;7.024;2024-03-23T09:14:08;4.33;;;3.47;;
13404;SDS011;6773;51.192;7.024;2024-03-23T09:16:34;6.40;;;3.80;;
13404;SDS011;6773;51.192;7.024;2024-03-23T09:19:00;4.67;;;3.50;;
13404;SDS011;6773;51.192;7.024;2024-03-23T09:21:26;7.20;;;4.10;;
13404;SDS011;6773;51.192;7.024;2024-03-23T09:23:52;6.63;;;4.20;;
13404;SDS011;6773;51.192;7.024;2024-03-23T09:26:18;7.90;;;3.77;;
13404;SDS011;6773;51.192;7.024;2024-03-23T09:28:44;7.07;;;4.57;;
13404;SDS011;6773;51.192;7.024;2024-03-23T09:31:10;7.60;;;5.20;;
13404;SDS011;6773;51.192;7.024;2024-03-23T09:33:39;12.17;;;5.77;;
13404;SDS011;6773;51.192;7.024;2024-03-23T09:36:05;5.20;;;4.70;;
13404;SDS011;6773;51.192;7.024;2024-03-23T09:38:32;4.67;;;4.27;;
13404;SDS011;6773;51.192;7.024;2024-03-23T09:40:58;5.60;;;5.10;;
13404;SDS011;6773;51.192;7.024;2024-03-23T09:43:24;8.40;;;5.17;;
13404;SDS011;6773;51.192;7.024;2024-03-23T09:45:50;7.87;;;5.13;;
13404;SDS011;6773;51.192;7.024;2024-03-23T09:48:17;7.00;;;5.03;;
13404;SDS011;6773;51.192;7.024;2024-03-23T09:50:43;6.97;;;4.80;;
13404;SDS011;6773;51.192;7.024;2024-03-23T09:53:10;7.63;;;4.90;;
13404;SDS011;6773;51.192;7.024;2024-03-23T09:55:37;8.83;;;5.00;;
13404;SDS011;6773;51.192;7.024;2024-03-23T09:58:03;5.87;;;4.27;;
13404;SDS011;6773;51.192;7.024;2024-03-23T10:00:30;4.57;;;4.17;;
13404;SDS011;6773;51.192;7.024;2024-03-23T10:02:56;5.83;;;4.90;;
13404;SDS011;6773;51.192;7.024;2024-03-23T10:05:29;8.80;;;4.80;;
13404;SDS011;6773;51.192;7.024;2024-03-23T10:10:39;5.23;;;4.37;;
13404;SDS011;6773;51.192;7.024;2024-03-23T10:13:05;6.87;;;4.90;;
13404;SDS011;6773;51.192;7.024;2024-03-23T10:15:32;6.07;;;5.50;;
13404;SDS011;6773;51.192;7.024;2024-03-23T10:18:04;7.30;;;4.83;;
13404;SDS011;6773;51.192;7.024;2024-03-23T10:20:42;5.40;;;4.17;;
13404;SDS011;6773;51.192;7.024;2024-03-23T10:23:18;9.63;;;4.70;;
13404;SDS011;6773;51.192;7.024;2024-03-23T10:25:44;7.50;;;5.33;;
13404;SDS011;6773;51.192;7.024;2024-03-23T10:28:11;4.97;;;3.90;;
13404;SDS011;6773;51.192;7.024;2024-03-23T10:30:37;8.10;;;4.00;;
13404;SDS011;6773;51.192;7.024;2024-03-23T10:35:36;4.40;;;3.87;;
13404;SDS011;6773;51.192;7.024;2024-03-23T10:38:03;5.20;;;4.10;;
13404;SDS011;6773;51.192;7.024;2024-03-23T10:40:31;6.73;;;4.07;;
13404;SDS011;6773;51.192;7.024;2024-03-23T10:42:57;5.73;;;4.57;;
13404;SDS011;6773;51.192;7.024;2024-03-23T10:45:23;5.43;;;3.50;;
13404;SDS011;6773;51.192;7.024;2024-03-23T10:47:49;4.63;;;3.57;;
13404;SDS011;6773;51.192;7.024;2024-03-23T10:50:15;3.70;;;3.40;;
13404;SDS011;6773;51.192;7.024;2024-03-23T10:52:41;3.60;;;3.30;;
13404;SDS011;6773;51.192;7.024;2024-03-23T10:55:11;5.30;;;3.97;;
13404;SDS011;6773;51.192;7.024;2024-03-23T10:58:00;4.10;;;3.80;;
13404;SDS011;6773;51.192;7.024;2024-03-23T11:00:25;3.87;;;3.53;;
13404;SDS011;6773;51.192;7.024;2024-03-23T11:02:51;5.93;;;4.00;;
13404;SDS011;6773;51.192;7.024;2024-03-23T11:07:55;3.40;;;3.20;;
13404;SDS011;6773;51.192;7.024;2024-03-23T11:12:51;3.40;;;3.10;;
13404;SDS011;6773;51.192;7.024;2024-03-23T11:15:18;6.53;;;3.23;;
13404;SDS011;6773;51.192;7.024;2024-03-23T11:18:01;3.10;;;2.90;;
13404;SDS011;6773;51.192;7.024;2024-03-23T11:20:31;3.87;;;3.20;;
13404;SDS011;6773;51.192;7.024;2024-03-23T11:22:58;3.13;;;2.93;;
13404;SDS011;6773;51.192;7.024;2024-03-23T11:25:25;3.30;;;3.10;;
13404;SDS011;6773;51.192;7.024;2024-03-23T11:27:52;3.20;;;3.00;;
13404;SDS011;6773;51.192;7.024;2024-03-23T11:30:35;3.23;;;2.93;;
13404;SDS011;6773;51.192;7.024;2024-03-23T11:33:03;3.07;;;2.87;;
13404;SDS011;6773;51.192;7.024;2024-03-23T11:43:14;3.37;;;3.07;;
13404;SDS011;6773;51.192;7.024;2024-03-23T11:45:50;3.33;;;3.10;;
13404;SDS011;6773;51.192;7.024;2024-03-23T11:48:18;3.80;;;3.50;;
13404;SDS011;6773;51.192;7.024;2024-03-23T11:50:45;4.00;;;3.70;;
13404;SDS011;6773;51.192;7.024;2024-03-23T11:58:17;4.47;;;3.77;;
13404;SDS011;6773;51.192;7.024;2024-03-23T12:00:50;2.57;;;2.43;;
13404;SDS011;6773;51.192;7.024;2024-03-23T12:03:17;2.40;;;1.70;;
13404;SDS011;6773;51.192;7.024;2024-03-23T12:05:49;3.33;;;1.63;;
13404;SDS011;6773;51.192;7.024;2024-03-23T12:10:49;4.45;;;2.60;;
13404;SDS011;6773;51.192;7.024;2024-03-23T12:13:19;2.00;;;1.90;;
13404;SDS011;6773;51.192;7.024;2024-03-23T12:15:45;4.50;;;4.17;;
13404;SDS011;6773;51.192;7.024;2024-03-23T12:18:12;3.90;;;3.50;;
13404;SDS011;6773;51.192;7.024;2024-03-23T12:20:38;3.93;;;3.57;;
13404;SDS011;6773;51.192;7.024;2024-03-23T12:23:11;4.17;;;3.00;;
13404;SDS011;6773;51.192;7.024;2024-03-23T12:25:40;3.77;;;2.90;;
13404;SDS011;6773;51.192;7.024;2024-03-23T12:28:06;2.93;;;2.80;;
13404;SDS011;6773;51.192;7.024;2024-03-23T12:30:35;2.90;;;2.80;;
13404;SDS011;6773;51.192;7.024;2024-03-23T12:33:03;3.03;;;2.87;;
13404;SDS011;6773;51.192;7.024;2024-03-23T12:35:29;3.13;;;2.93;;
13404;SDS011;6773;51.192;7.024;2024-03-23T12:37:55;3.40;;;3.10;;
13404;SDS011;6773;51.192;7.024;2024-03-23T12:40:21;3.57;;;3.27;;
13404;SDS011;6773;51.192;7.024;2024-03-23T12:42:47;3.63;;;2.97;;
13404;SDS011;6773;51.192;7.024;2024-03-23T12:45:13;4.73;;;3.30;;
13404;SDS011;6773;51.192;7.024;2024-03-23T12:47:39;3.93;;;3.37;;
13404;SDS011;6773;51.192;7.024;2024-03-23T12:50:05;3.20;;;2.97;;
13404;SDS011;6773;51.192;7.024;2024-03-23T12:52:32;3.77;;;3.37;;
13404;SDS011;6773;51.192;7.024;2024-03-23T12:54:58;4.03;;;2.87;;
13404;SDS011;6773;51.192;7.024;2024-03-23T12:57:24;3.23;;;2.93;;
13404;SDS011;6773;51.192;7.024;2024-03-23T12:59:53;3.87;;;3.17;;
13404;SDS011;6773;51.192;7.024;2024-03-23T13:02:19;3.43;;;3.20;;
13404;SDS011;6773;51.192;7.024;2024-03-23T13:04:46;4.07;;;3.20;;
13404;SDS011;6773;51.192;7.024;2024-03-23T13:07:12;5.37;;;3.50;;
13404;SDS011;6773;51.192;7.024;2024-03-23T13:09:38;3.87;;;3.67;;
13404;SDS011;6773;51.192;7.024;2024-03-23T13:12:04;3.60;;;3.30;;
13404;SDS011;6773;51.192;7.024;2024-03-23T13:14:30;3.83;;;3.53;;
13404;SDS011;6773;51.192;7.024;2024-03-23T13:16:56;3.60;;;3.30;;
13404;SDS011;6773;51.192;7.024;2024-03-23T13:19:22;3.63;;;3.33;;
13404;SDS011;6773;51.192;7.024;2024-03-23T13:21:52;4.33;;;3.20;;
13404;SDS011;6773;51.192;7.024;2024-03-23T13:24:20;3.60;;;3.10;;
13404;SDS011;6773;51.192;7.024;2024-03-23T13:26:46;3.70;;;3.50;;
13404;SDS011;6773;51.192;7.024;2024-03-23T13:29:12;3.70;;;3.40;;
13404;SDS011;6773;51.192;7.024;2024-03-23T13:31:39;4.00;;;3.60;;
13404;SDS011;6773;51.192;7.024;2024-03-23T13:34:05;3.80;;;3.60;;
13404;SDS011;6773;51.192;7.024;2024-03-23T13:36:31;3.60;;;3.30;;
13404;SDS011;6773;51.192;7.024;2024-03-23T13:38:56;4.03;;;3.00;;
13404;SDS011;6773;51.192;7.024;2024-03-23T13:41:22;3.20;;;2.90;;
13404;SDS011;6773;51.192;7.024;2024-03-23T13:43:49;3.27;;;2.97;;
13404;SDS011;6773;51.192;7.024;2024-03-23T13:46:15;3.80;;;3.50;;
13404;SDS011;6773;51.192;7.024;2024-03-23T13:48:41;3.23;;;2.83;;
13404;SDS011;6773;51.192;7.024;2024-03-23T13:51:07;3.60;;;3.30;;
13404;SDS011;6773;51.192;7.024;2024-03-23T13:53:33;4.93;;;3.60;;
13404;SDS011;6773;51.192;7.024;2024-03-23T13:55:59;3.53;;;3.33;;
13404;SDS011;6773;51.192;7.024;2024-03-23T13:58:25;4.07;;;3.70;;
13404;SDS011;6773;51.192;7.024;2024-03-23T14:00:51;3.30;;;3.10;;
13404;SDS011;6773;51.192;7.024;2024-03-23T14:03:17;3.97;;;3.63;;
13404;SDS011;6773;51.192;7.024;2024-03-23T14:05:43;4.07;;;3.60;;
13404;SDS011;6773;51.192;7.024;2024-03-23T14:08:10;9.20;;;3.70;;
13404;SDS011;6773;51.192;7.024;2024-03-23T14:10:36;4.00;;;3.70;;
13404;SDS011;6773;51.192;7.024;2024-03-23T14:13:05;3.80;;;3.53;;
13404;SDS011;6773;51.192;7.024;2024-03-23T14:15:31;5.47;;;3.70;;
13404;SDS011;6773;51.192;7.024;2024-03-23T14:17:57;4.70;;;3.33;;
13404;SDS011;6773;51.192;7.024;2024-03-23T14:20:23;4.20;;;3.30;;
13404;SDS011;6773;51.192;7.024;2024-03-23T14:22:49;5.60;;;3.67;;
13404;SDS011;6773;51.192;7.024;2024-03-23T14:25:15;4.33;;;3.23;;
13404;SDS011;6773;51.192;7.024;2024-03-23T14:27:43;4.00;;;3.60;;
13404;SDS011;6773;51.192;7.024;2024-03-23T14:30:09;3.60;;;3.30;;
13404;SDS011;6773;51.192;7.024;2024-03-23T14:32:35;3.87;;;3.67;;
13404;SDS011;6773;51.192;7.024;2024-03-23T14:35:02;5.13;;;3.37;;
13404;SDS011;6773;51.192;7.024;2024-03-23T14:37:28;3.50;;;3.20;;
13404;SDS011;6773;51.192;7.024;2024-03-23T14:39:57;3.77;;;3.57;;
13404;SDS011;6773;51.192;7.024;2024-03-23T14:42:24;4.10;;;3.70;;
13404;SDS011;6773;51.192;7.024;2024-03-23T14:44:50;3.60;;;3.40;;
13404;SDS011;6773;51.192;7.024;2024-03-23T14:47:17;4.40;;;4.10;;
13404;SDS011;6773;51.192;7.024;2024-03-23T14:49:43;4.43;;;4.13;;
13404;SDS011;6773;51.192;7.024;2024-03-23T14:52:15;3.90;;;3.60;;
13404;SDS011;6773;51.192;7.024;2024-03-23T14:54:41;3.73;;;3.40;;
13404;SDS011;6773;51.192;7.024;2024-03-23T14:57:07;4.90;;;3.40;;
13404;SDS011;6773;51.192;7.024;2024-03-23T14:59:34;4.17;;;3.10;;
13404;SDS011;6773;51.192;7.024;2024-03-23T15:02:00;3.33;;;3.03;;
13404;SDS011;6773;51.192;7.024;2024-03-23T15:04:26;4.57;;;3.50;;
13404;SDS011;6773;51.192;7.024;2024-03-23T15:06:51;3.50;;;3.20;;
13404;SDS011;6773;51.192;7.024;2024-03-23T15:09:17;3.63;;;3.33;;
13404;SDS011;6773;51.192;7.024;2024-03-23T15:11:43;4.07;;;3.73;;
13404;SDS011;6773;51.192;7.024;2024-03-23T15:14:09;3.67;;;3.37;;
13404;SDS011;6773;51.192;7.024;2024-03-23T15:16:36;3.33;;;3.13;;
13404;SDS011;6773;51.192;7.024;2024-03-23T15:19:02;3.73;;;3.40;;
13404;SDS011;6773;51.192;7.024;2024-03-23T15:21:28;3.90;;;3.40;;
13404;SDS011;6773;51.192;7.024;2024-03-23T15:23:53;3.60;;;3.40;;
13404;SDS011;6773;51.192;7.024;2024-03-23T15:26:19;3.87;;;3.67;;
13404;SDS011;6773;51.192;7.024;2024-03-23T15:28:48;3.67;;;3.43;;
13404;SDS011;6773;51.192;7.024;2024-03-23T15:31:24;3.53;;;3.27;;
13404;SDS011;6773;51.192;7.024;2024-03-23T15:33:50;4.20;;;3.80;;
13404;SDS011;6773;51.192;7.024;2024-03-23T15:36:16;3.93;;;3.40;;
13404;SDS011;6773;51.192;7.024;2024-03-23T15:38:42;3.60;;;3.30;;
13404;SDS011;6773;51.192;7.024;2024-03-23T15:41:08;4.00;;;3.70;;
13404;SDS011;6773;51.192;7.024;2024-03-23T15:43:34;3.53;;;3.37;;
13404;SDS011;6773;51.192;7.024;2024-03-23T15:46:01;4.60;;;3.73;;
13404;SDS011;6773;51.192;7.024;2024-03-23T15:48:28;3.70;;;3.50;;
13404;SDS011;6773;51.192;7.024;2024-03-23T15:50:55;3.73;;;3.43;;
13404;SDS011;6773;51.192;7.024;2024-03-23T15:53:21;4.00;;;3.70;;
13404;SDS011;6773;51.192;7.024;2024-03-23T15:58:20;4.07;;;3.77;;
13404;SDS011;6773;51.192;7.024;2024-03-23T16:00:53;4.20;;;4.00;;
13404;SDS011;6773;51.192;7.024;2024-03-23T16:03:19;4.67;;;4.10;;
13404;SDS011;6773;51.192;7.024;2024-03-23T16:05:58;4.30;;;4.00;;
13404;SDS011;6773;51.192;7.024;2024-03-23T16:08:28;4.10;;;3.70;;
13404;SDS011;6773;51.192;7.024;2024-03-23T16:10:59;4.07;;;3.80;;
13404;SDS011;6773;51.192;7.024;2024-03-23T16:24:06;3.80;;;3.50;;
13404;SDS011;6773;51.192;7.024;2024-03-23T16:26:33;3.77;;;3.57;;